sensor_id;sensor_type;location;lat;lon;timestamp;P1;durP1;ratioP1;P2;durP2;ratioP2
11123;SDS011;5616;42.692;23.312;2022-10-18T00:02:03;14.60;;;10.63;;
11123;SDS011;5616;42.692;23.312;2022-10-18T00:04:32;13.67;;;10.30;;
11123;SDS011;5616;42.692;23.312;2022-10-18T00:06:59;15.57;;;10.80;;
11123;SDS011;5616;42.692;23.312;2022-10-18T00:09:26;13.73;;;9.90;;
11123;SDS011;5616;42.692;23.312;2022-10-18T00:11:52;15.20;;;10.40;;
11123;SDS011;5616;42.692;23.312;2022-10-18T00:14:19;13.53;;;9.87;;
11123;SDS011;5616;42.692;23.312;2022-10-18T00:16:46;14.73;;;10.30;;
11123;SDS011;5616;42.692;23.312;2022-10-18T00:19:13;12.90;;;9.67;;
11123;SDS011;5616;42.692;23.312;2022-10-18T00:21:42;12.80;;;9.57;;
11123;SDS011;5616;42.692;23.312;2022-10-18T00:24:08;19.83;;;10.30;;
11123;SDS011;5616;42.692;23.312;2022-10-18T00:26:35;14.17;;;9.87;;
11123;SDS011;5616;42.692;23.312;2022-10-18T00:29:02;13.77;;;9.70;;
11123;SDS011;5616;42.692;23.312;2022-10-18T00:31:31;14.27;;;10.47;;
11123;SDS011;5616;42.692;23.312;2022-10-18T00:34:01;13.17;;;10.33;;
11123;SDS011;5616;42.692;23.312;2022-10-18T00:36:30;13.77;;;9.90;;
11123;SDS011;5616;42.692;23.312;2022-10-18T00:39:00;15.23;;;9.60;;
11123;SDS011;5616;42.692;23.312;2022-10-18T00:41:27;13.67;;;9.80;;
11123;SDS011;5616;42.692;23.312;2022-10-18T00:43:56;17.33;;;9.43;;
11123;SDS011;5616;42.692;23.312;2022-10-18T00:46:25;14.70;;;9.00;;
11123;SDS011;5616;42.692;23.312;2022-10-18T00:48:53;18.50;;;9.63;;
11123;SDS011;5616;42.692;23.312;2022-10-18T00:51:21;13.40;;;8.50;;
11123;SDS011;5616;42.692;23.312;2022-10-18T00:53:52;14.90;;;8.50;;
11123;SDS011;5616;42.692;23.312;2022-10-18T00:56:21;12.33;;;8.60;;
11123;SDS011;5616;42.692;23.312;2022-10-18T00:58:48;13.30;;;8.27;;
11123;SDS011;5616;42.692;23.312;2022-10-18T01:01:16;12.53;;;8.77;;
11123;SDS011;5616;42.692;23.312;2022-10-18T01:03:43;11.03;;;8.20;;
11123;SDS011;5616;42.692;23.312;2022-10-18T01:06:10;11.33;;;7.77;;
11123;SDS011;5616;42.692;23.312;2022-10-18T01:08:43;10.03;;;8.37;;
11123;SDS011;5616;42.692;23.312;2022-10-18T01:11:20;9.43;;;7.63;;
11123;SDS011;5616;42.692;23.312;2022-10-18T01:14:04;13.13;;;7.80;;
11123;SDS011;5616;42.692;23.312;2022-10-18T01:16:39;9.77;;;7.00;;
11123;SDS011;5616;42.692;23.312;2022-10-18T01:19:17;10.47;;;7.33;;
11123;SDS011;5616;42.692;23.312;2022-10-18T01:22:01;9.97;;;7.00;;
11123;SDS011;5616;42.692;23.312;2022-10-18T01:27:41;12.03;;;7.97;;
11123;SDS011;5616;42.692;23.312;2022-10-18T01:30:28;8.90;;;7.47;;
11123;SDS011;5616;42.692;23.312;2022-10-18T01:33:02;8.77;;;7.47;;
11123;SDS011;5616;42.692;23.312;2022-10-18T01:35:36;11.50;;;7.30;;
11123;SDS011;5616;42.692;23.312;2022-10-18T01:38:08;10.00;;;7.70;;
11123;SDS011;5616;42.692;23.312;2022-10-18T01:40:38;10.73;;;8.10;;
11123;SDS011;5616;42.692;23.312;2022-10-18T01:43:07;12.63;;;8.10;;
11123;SDS011;5616;42.692;23.312;2022-10-18T01:45:37;10.77;;;7.63;;
11123;SDS011;5616;42.692;23.312;2022-10-18T01:48:05;11.47;;;7.83;;
11123;SDS011;5616;42.692;23.312;2022-10-18T01:50:33;13.53;;;8.83;;
11123;SDS011;5616;42.692;23.312;2022-10-18T01:53:00;12.30;;;8.67;;
11123;SDS011;5616;42.692;23.312;2022-10-18T01:55:30;16.33;;;9.80;;
11123;SDS011;5616;42.692;23.312;2022-10-18T01:58:07;13.90;;;9.53;;
11123;SDS011;5616;42.692;23.312;2022-10-18T02:00:43;16.10;;;10.07;;
11123;SDS011;5616;42.692;23.312;2022-10-18T02:03:20;15.00;;;9.37;;
11123;SDS011;5616;42.692;23.312;2022-10-18T02:05:50;12.83;;;9.40;;
11123;SDS011;5616;42.692;23.312;2022-10-18T02:08:23;12.43;;;10.27;;
11123;SDS011;5616;42.692;23.312;2022-10-18T02:10:53;15.20;;;10.17;;
11123;SDS011;5616;42.692;23.312;2022-10-18T02:13:24;13.63;;;9.70;;
11123;SDS011;5616;42.692;23.312;2022-10-18T02:15:56;15.67;;;9.67;;
11123;SDS011;5616;42.692;23.312;2022-10-18T02:18:28;14.17;;;9.97;;
11123;SDS011;5616;42.692;23.312;2022-10-18T02:20:59;12.57;;;9.50;;
11123;SDS011;5616;42.692;23.312;2022-10-18T02:23:28;12.10;;;9.50;;
11123;SDS011;5616;42.692;23.312;2022-10-18T02:25:56;16.13;;;9.27;;
11123;SDS011;5616;42.692;23.312;2022-10-18T02:28:23;10.70;;;8.63;;
11123;SDS011;5616;42.692;23.312;2022-10-18T02:30:51;13.03;;;9.13;;
11123;SDS011;5616;42.692;23.312;2022-10-18T02:33:30;13.50;;;8.50;;
11123;SDS011;5616;42.692;23.312;2022-10-18T02:36:02;11.93;;;8.17;;
11123;SDS011;5616;42.692;23.312;2022-10-18T02:38:35;14.47;;;8.73;;
11123;SDS011;5616;42.692;23.312;2022-10-18T02:41:04;14.40;;;8.37;;
11123;SDS011;5616;42.692;23.312;2022-10-18T02:43:30;11.73;;;7.77;;
11123;SDS011;5616;42.692;23.312;2022-10-18T02:45:59;9.60;;;7.37;;
11123;SDS011;5616;42.692;23.312;2022-10-18T02:48:25;11.63;;;7.83;;
11123;SDS011;5616;42.692;23.312;2022-10-18T02:50:52;11.73;;;7.53;;
11123;SDS011;5616;42.692;23.312;2022-10-18T02:53:19;10.80;;;7.87;;
11123;SDS011;5616;42.692;23.312;2022-10-18T02:55:46;10.70;;;7.43;;
11123;SDS011;5616;42.692;23.312;2022-10-18T02:58:12;14.30;;;8.07;;
11123;SDS011;5616;42.692;23.312;2022-10-18T03:00:39;12.47;;;7.20;;
11123;SDS011;5616;42.692;23.312;2022-10-18T03:03:08;8.77;;;6.50;;
11123;SDS011;5616;42.692;23.312;2022-10-18T03:05:34;13.00;;;7.53;;
11123;SDS011;5616;42.692;23.312;2022-10-18T03:08:01;9.60;;;7.00;;
11123;SDS011;5616;42.692;23.312;2022-10-18T03:10:28;11.67;;;7.47;;
11123;SDS011;5616;42.692;23.312;2022-10-18T03:12:55;12.70;;;7.00;;
11123;SDS011;5616;42.692;23.312;2022-10-18T03:15:22;10.30;;;7.33;;
11123;SDS011;5616;42.692;23.312;2022-10-18T03:17:48;14.55;;;7.80;;
11123;SDS011;5616;42.692;23.312;2022-10-18T03:20:17;12.27;;;7.63;;
11123;SDS011;5616;42.692;23.312;2022-10-18T03:22:43;14.87;;;8.33;;
11123;SDS011;5616;42.692;23.312;2022-10-18T03:25:10;10.60;;;8.40;;
11123;SDS011;5616;42.692;23.312;2022-10-18T03:27:37;9.37;;;7.27;;
11123;SDS011;5616;42.692;23.312;2022-10-18T03:30:04;14.00;;;6.77;;
11123;SDS011;5616;42.692;23.312;2022-10-18T03:32:32;10.53;;;6.73;;
11123;SDS011;5616;42.692;23.312;2022-10-18T03:34:59;7.67;;;6.67;;
11123;SDS011;5616;42.692;23.312;2022-10-18T03:37:27;7.73;;;6.60;;
11123;SDS011;5616;42.692;23.312;2022-10-18T03:39:54;9.57;;;7.00;;
11123;SDS011;5616;42.692;23.312;2022-10-18T03:42:21;11.17;;;6.70;;
11123;SDS011;5616;42.692;23.312;2022-10-18T03:44:48;11.37;;;7.10;;
11123;SDS011;5616;42.692;23.312;2022-10-18T03:47:15;9.80;;;6.10;;
11123;SDS011;5616;42.692;23.312;2022-10-18T03:49:41;11.83;;;6.20;;
11123;SDS011;5616;42.692;23.312;2022-10-18T03:52:08;10.03;;;7.20;;
11123;SDS011;5616;42.692;23.312;2022-10-18T03:54:37;10.70;;;7.10;;
11123;SDS011;5616;42.692;23.312;2022-10-18T03:57:03;11.60;;;7.17;;
11123;SDS011;5616;42.692;23.312;2022-10-18T03:59:30;8.60;;;6.43;;
11123;SDS011;5616;42.692;23.312;2022-10-18T04:01:57;13.93;;;7.53;;
11123;SDS011;5616;42.692;23.312;2022-10-18T04:04:24;9.83;;;7.17;;
11123;SDS011;5616;42.692;23.312;2022-10-18T04:06:50;10.53;;;7.10;;
11123;SDS011;5616;42.692;23.312;2022-10-18T04:09:17;13.20;;;7.17;;
11123;SDS011;5616;42.692;23.312;2022-10-18T04:11:46;11.90;;;7.10;;
11123;SDS011;5616;42.692;23.312;2022-10-18T04:14:15;9.90;;;6.93;;
11123;SDS011;5616;42.692;23.312;2022-10-18T04:16:42;10.03;;;6.57;;
11123;SDS011;5616;42.692;23.312;2022-10-18T04:19:09;9.07;;;6.97;;
11123;SDS011;5616;42.692;23.312;2022-10-18T04:21:35;13.83;;;7.33;;
11123;SDS011;5616;42.692;23.312;2022-10-18T04:24:02;15.20;;;7.63;;
11123;SDS011;5616;42.692;23.312;2022-10-18T04:26:30;9.30;;;7.20;;
11123;SDS011;5616;42.692;23.312;2022-10-18T04:28:58;12.33;;;6.93;;
11123;SDS011;5616;42.692;23.312;2022-10-18T04:31:25;9.10;;;7.37;;
11123;SDS011;5616;42.692;23.312;2022-10-18T04:33:51;14.90;;;7.73;;
11123;SDS011;5616;42.692;23.312;2022-10-18T04:36:18;12.17;;;7.43;;
11123;SDS011;5616;42.692;23.312;2022-10-18T04:38:45;11.97;;;7.60;;
11123;SDS011;5616;42.692;23.312;2022-10-18T04:41:12;8.93;;;7.47;;
11123;SDS011;5616;42.692;23.312;2022-10-18T04:43:39;11.00;;;7.93;;
11123;SDS011;5616;42.692;23.312;2022-10-18T04:46:07;10.63;;;7.87;;
11123;SDS011;5616;42.692;23.312;2022-10-18T04:48:34;17.80;;;8.77;;
11123;SDS011;5616;42.692;23.312;2022-10-18T04:51:01;17.80;;;8.30;;
11123;SDS011;5616;42.692;23.312;2022-10-18T04:53:27;16.53;;;9.70;;
11123;SDS011;5616;42.692;23.312;2022-10-18T04:55:54;15.23;;;9.67;;
11123;SDS011;5616;42.692;23.312;2022-10-18T04:58:21;13.77;;;9.10;;
11123;SDS011;5616;42.692;23.312;2022-10-18T05:00:48;11.87;;;8.70;;
11123;SDS011;5616;42.692;23.312;2022-10-18T05:03:16;13.20;;;8.50;;
11123;SDS011;5616;42.692;23.312;2022-10-18T05:05:43;11.20;;;8.63;;
11123;SDS011;5616;42.692;23.312;2022-10-18T05:08:10;13.27;;;8.73;;
11123;SDS011;5616;42.692;23.312;2022-10-18T05:10:37;15.50;;;9.03;;
11123;SDS011;5616;42.692;23.312;2022-10-18T05:13:04;20.20;;;9.43;;
11123;SDS011;5616;42.692;23.312;2022-10-18T05:15:31;16.37;;;9.63;;
11123;SDS011;5616;42.692;23.312;2022-10-18T05:17:57;19.97;;;10.13;;
11123;SDS011;5616;42.692;23.312;2022-10-18T05:20:26;17.43;;;10.90;;
11123;SDS011;5616;42.692;23.312;2022-10-18T05:22:53;16.97;;;10.53;;
11123;SDS011;5616;42.692;23.312;2022-10-18T05:25:19;18.00;;;10.27;;
11123;SDS011;5616;42.692;23.312;2022-10-18T05:27:46;23.23;;;11.43;;
11123;SDS011;5616;42.692;23.312;2022-10-18T05:30:13;20.37;;;10.80;;
11123;SDS011;5616;42.692;23.312;2022-10-18T05:32:40;16.70;;;10.13;;
11123;SDS011;5616;42.692;23.312;2022-10-18T05:35:07;14.97;;;8.90;;
11123;SDS011;5616;42.692;23.312;2022-10-18T05:37:35;17.90;;;10.07;;
11123;SDS011;5616;42.692;23.312;2022-10-18T05:40:02;22.27;;;10.43;;
11123;SDS011;5616;42.692;23.312;2022-10-18T05:42:29;24.10;;;10.50;;
11123;SDS011;5616;42.692;23.312;2022-10-18T05:44:56;13.63;;;9.00;;
11123;SDS011;5616;42.692;23.312;2022-10-18T05:47:22;16.60;;;9.73;;
11123;SDS011;5616;42.692;23.312;2022-10-18T05:49:49;13.60;;;9.27;;
11123;SDS011;5616;42.692;23.312;2022-10-18T05:52:16;15.23;;;9.47;;
11123;SDS011;5616;42.692;23.312;2022-10-18T05:54:44;18.27;;;9.70;;
11123;SDS011;5616;42.692;23.312;2022-10-18T05:57:11;17.07;;;9.40;;
11123;SDS011;5616;42.692;23.312;2022-10-18T05:59:38;21.43;;;10.00;;
11123;SDS011;5616;42.692;23.312;2022-10-18T06:02:05;11.50;;;8.50;;
11123;SDS011;5616;42.692;23.312;2022-10-18T06:04:31;13.13;;;8.73;;
11123;SDS011;5616;42.692;23.312;2022-10-18T06:06:59;14.50;;;8.90;;
11123;SDS011;5616;42.692;23.312;2022-10-18T06:09:25;11.27;;;7.80;;
11123;SDS011;5616;42.692;23.312;2022-10-18T06:11:54;15.40;;;8.93;;
11123;SDS011;5616;42.692;23.312;2022-10-18T06:14:21;16.03;;;8.93;;
11123;SDS011;5616;42.692;23.312;2022-10-18T06:16:48;15.77;;;9.40;;
11123;SDS011;5616;42.692;23.312;2022-10-18T06:19:15;20.97;;;9.30;;
11123;SDS011;5616;42.692;23.312;2022-10-18T06:21:42;15.23;;;8.83;;
11123;SDS011;5616;42.692;23.312;2022-10-18T06:24:09;14.73;;;9.20;;
11123;SDS011;5616;42.692;23.312;2022-10-18T06:26:36;15.50;;;9.33;;
11123;SDS011;5616;42.692;23.312;2022-10-18T06:29:04;14.97;;;9.37;;
11123;SDS011;5616;42.692;23.312;2022-10-18T06:31:31;15.67;;;9.17;;
11123;SDS011;5616;42.692;23.312;2022-10-18T06:33:58;14.17;;;9.20;;
11123;SDS011;5616;42.692;23.312;2022-10-18T06:36:25;15.00;;;9.60;;
11123;SDS011;5616;42.692;23.312;2022-10-18T06:38:52;15.00;;;8.77;;
11123;SDS011;5616;42.692;23.312;2022-10-18T06:41:20;14.33;;;8.87;;
11123;SDS011;5616;42.692;23.312;2022-10-18T06:43:47;15.97;;;8.67;;
11123;SDS011;5616;42.692;23.312;2022-10-18T06:46:15;14.07;;;8.77;;
11123;SDS011;5616;42.692;23.312;2022-10-18T06:48:42;11.77;;;8.07;;
11123;SDS011;5616;42.692;23.312;2022-10-18T06:51:09;12.73;;;8.50;;
11123;SDS011;5616;42.692;23.312;2022-10-18T06:53:37;12.90;;;9.87;;
11123;SDS011;5616;42.692;23.312;2022-10-18T06:56:06;16.10;;;9.37;;
11123;SDS011;5616;42.692;23.312;2022-10-18T06:58:34;14.53;;;9.73;;
11123;SDS011;5616;42.692;23.312;2022-10-18T07:01:04;18.87;;;11.80;;
11123;SDS011;5616;42.692;23.312;2022-10-18T07:03:33;17.50;;;10.63;;
11123;SDS011;5616;42.692;23.312;2022-10-18T07:06:01;17.13;;;11.23;;
11123;SDS011;5616;42.692;23.312;2022-10-18T07:08:28;17.70;;;11.00;;
11123;SDS011;5616;42.692;23.312;2022-10-18T07:10:55;16.13;;;10.63;;
11123;SDS011;5616;42.692;23.312;2022-10-18T07:13:22;16.63;;;10.50;;
11123;SDS011;5616;42.692;23.312;2022-10-18T07:15:58;22.47;;;11.90;;
11123;SDS011;5616;42.692;23.312;2022-10-18T07:18:25;17.53;;;10.43;;
11123;SDS011;5616;42.692;23.312;2022-10-18T07:20:53;19.33;;;10.87;;
11123;SDS011;5616;42.692;23.312;2022-10-18T07:23:20;19.13;;;11.83;;
11123;SDS011;5616;42.692;23.312;2022-10-18T07:25:48;20.03;;;10.77;;
11123;SDS011;5616;42.692;23.312;2022-10-18T07:28:15;22.07;;;10.60;;
11123;SDS011;5616;42.692;23.312;2022-10-18T07:30:41;17.60;;;10.67;;
11123;SDS011;5616;42.692;23.312;2022-10-18T07:33:08;19.97;;;11.60;;
11123;SDS011;5616;42.692;23.312;2022-10-18T07:35:35;19.20;;;12.33;;
11123;SDS011;5616;42.692;23.312;2022-10-18T07:38:03;25.37;;;12.60;;
11123;SDS011;5616;42.692;23.312;2022-10-18T07:40:30;23.13;;;12.13;;
11123;SDS011;5616;42.692;23.312;2022-10-18T07:42:57;23.23;;;11.80;;
11123;SDS011;5616;42.692;23.312;2022-10-18T07:45:23;22.50;;;10.73;;
11123;SDS011;5616;42.692;23.312;2022-10-18T07:47:52;20.13;;;12.13;;
11123;SDS011;5616;42.692;23.312;2022-10-18T07:50:20;18.37;;;11.67;;
11123;SDS011;5616;42.692;23.312;2022-10-18T07:52:46;21.03;;;11.80;;
11123;SDS011;5616;42.692;23.312;2022-10-18T07:55:15;16.63;;;11.33;;
11123;SDS011;5616;42.692;23.312;2022-10-18T07:57:42;17.07;;;10.97;;
11123;SDS011;5616;42.692;23.312;2022-10-18T08:00:09;20.07;;;11.03;;
11123;SDS011;5616;42.692;23.312;2022-10-18T08:02:40;17.30;;;12.27;;
11123;SDS011;5616;42.692;23.312;2022-10-18T08:05:07;19.40;;;12.90;;
11123;SDS011;5616;42.692;23.312;2022-10-18T08:07:34;21.23;;;12.37;;
11123;SDS011;5616;42.692;23.312;2022-10-18T08:10:01;20.67;;;12.53;;
11123;SDS011;5616;42.692;23.312;2022-10-18T08:12:30;18.23;;;12.17;;
11123;SDS011;5616;42.692;23.312;2022-10-18T08:14:57;21.30;;;11.67;;
11123;SDS011;5616;42.692;23.312;2022-10-18T08:17:24;17.60;;;11.77;;
11123;SDS011;5616;42.692;23.312;2022-10-18T08:19:50;14.90;;;11.50;;
11123;SDS011;5616;42.692;23.312;2022-10-18T08:22:17;18.30;;;12.13;;
11123;SDS011;5616;42.692;23.312;2022-10-18T08:24:45;18.27;;;11.83;;
11123;SDS011;5616;42.692;23.312;2022-10-18T08:27:12;17.60;;;11.70;;
11123;SDS011;5616;42.692;23.312;2022-10-18T08:29:40;20.97;;;11.43;;
11123;SDS011;5616;42.692;23.312;2022-10-18T08:32:07;17.20;;;11.40;;
11123;SDS011;5616;42.692;23.312;2022-10-18T08:34:34;17.93;;;12.27;;
11123;SDS011;5616;42.692;23.312;2022-10-18T08:37:00;18.27;;;11.53;;
11123;SDS011;5616;42.692;23.312;2022-10-18T08:39:28;17.97;;;12.40;;
11123;SDS011;5616;42.692;23.312;2022-10-18T08:44:48;16.70;;;11.70;;
11123;SDS011;5616;42.692;23.312;2022-10-18T08:47:17;17.70;;;11.40;;
11123;SDS011;5616;42.692;23.312;2022-10-18T08:49:47;19.60;;;12.27;;
11123;SDS011;5616;42.692;23.312;2022-10-18T08:52:18;17.47;;;11.97;;
11123;SDS011;5616;42.692;23.312;2022-10-18T08:54:51;23.30;;;11.63;;
11123;SDS011;5616;42.692;23.312;2022-10-18T08:57:24;20.20;;;11.60;;
11123;SDS011;5616;42.692;23.312;2022-10-18T08:59:53;21.43;;;12.40;;
11123;SDS011;5616;42.692;23.312;2022-10-18T09:02:25;15.60;;;12.07;;
11123;SDS011;5616;42.692;23.312;2022-10-18T09:05:08;18.43;;;11.20;;
11123;SDS011;5616;42.692;23.312;2022-10-18T09:08:01;13.07;;;10.53;;
11123;SDS011;5616;42.692;23.312;2022-10-18T09:10:42;15.27;;;10.83;;
11123;SDS011;5616;42.692;23.312;2022-10-18T09:13:20;18.13;;;11.47;;
11123;SDS011;5616;42.692;23.312;2022-10-18T09:16:03;16.43;;;11.17;;
11123;SDS011;5616;42.692;23.312;2022-10-18T09:18:35;16.53;;;11.10;;
11123;SDS011;5616;42.692;23.312;2022-10-18T09:21:18;16.20;;;10.97;;
11123;SDS011;5616;42.692;23.312;2022-10-18T09:23:47;26.33;;;13.90;;
11123;SDS011;5616;42.692;23.312;2022-10-18T09:26:19;19.10;;;10.90;;
11123;SDS011;5616;42.692;23.312;2022-10-18T09:28:54;18.53;;;11.13;;
11123;SDS011;5616;42.692;23.312;2022-10-18T09:31:34;17.03;;;10.10;;
11123;SDS011;5616;42.692;23.312;2022-10-18T09:34:10;15.37;;;9.40;;
11123;SDS011;5616;42.692;23.312;2022-10-18T09:36:44;17.53;;;9.50;;
11123;SDS011;5616;42.692;23.312;2022-10-18T09:39:13;19.70;;;10.93;;
11123;SDS011;5616;42.692;23.312;2022-10-18T09:41:44;13.47;;;8.50;;
11123;SDS011;5616;42.692;23.312;2022-10-18T09:44:17;22.57;;;11.40;;
11123;SDS011;5616;42.692;23.312;2022-10-18T09:46:50;16.47;;;9.70;;
11123;SDS011;5616;42.692;23.312;2022-10-18T09:49:22;14.30;;;8.03;;
11123;SDS011;5616;42.692;23.312;2022-10-18T09:51:52;16.10;;;8.17;;
11123;SDS011;5616;42.692;23.312;2022-10-18T09:54:22;10.53;;;7.27;;
11123;SDS011;5616;42.692;23.312;2022-10-18T09:56:54;27.53;;;13.93;;
11123;SDS011;5616;42.692;23.312;2022-10-18T10:02:15;11.37;;;7.50;;
11123;SDS011;5616;42.692;23.312;2022-10-18T10:04:43;15.67;;;7.13;;
11123;SDS011;5616;42.692;23.312;2022-10-18T10:07:11;15.20;;;6.50;;
11123;SDS011;5616;42.692;23.312;2022-10-18T10:09:43;9.90;;;6.70;;
11123;SDS011;5616;42.692;23.312;2022-10-18T10:12:25;10.50;;;5.43;;
11123;SDS011;5616;42.692;23.312;2022-10-18T10:14:53;13.03;;;6.63;;
11123;SDS011;5616;42.692;23.312;2022-10-18T10:17:23;54.30;;;20.23;;
11123;SDS011;5616;42.692;23.312;2022-10-18T10:19:56;11.40;;;6.20;;
11123;SDS011;5616;42.692;23.312;2022-10-18T10:22:26;10.97;;;6.03;;
11123;SDS011;5616;42.692;23.312;2022-10-18T10:25:00;10.53;;;4.03;;
11123;SDS011;5616;42.692;23.312;2022-10-18T10:27:28;7.90;;;4.43;;
11123;SDS011;5616;42.692;23.312;2022-10-18T10:29:59;20.13;;;5.80;;
11123;SDS011;5616;42.692;23.312;2022-10-18T10:32:29;10.97;;;5.20;;
11123;SDS011;5616;42.692;23.312;2022-10-18T10:35:18;16.87;;;5.30;;
11123;SDS011;5616;42.692;23.312;2022-10-18T10:37:49;15.10;;;5.10;;
11123;SDS011;5616;42.692;23.312;2022-10-18T10:40:18;17.27;;;5.80;;
11123;SDS011;5616;42.692;23.312;2022-10-18T10:43:03;10.70;;;5.63;;
11123;SDS011;5616;42.692;23.312;2022-10-18T10:45:34;12.57;;;5.20;;
11123;SDS011;5616;42.692;23.312;2022-10-18T10:48:06;7.23;;;4.80;;
11123;SDS011;5616;42.692;23.312;2022-10-18T10:50:46;10.03;;;4.83;;
11123;SDS011;5616;42.692;23.312;2022-10-18T10:53:25;13.63;;;5.53;;
11123;SDS011;5616;42.692;23.312;2022-10-18T10:55:53;8.63;;;3.40;;
11123;SDS011;5616;42.692;23.312;2022-10-18T10:58:22;10.17;;;3.07;;
11123;SDS011;5616;42.692;23.312;2022-10-18T11:00:51;3.67;;;2.83;;
11123;SDS011;5616;42.692;23.312;2022-10-18T11:03:20;3.77;;;2.73;;
11123;SDS011;5616;42.692;23.312;2022-10-18T11:05:48;3.23;;;2.60;;
11123;SDS011;5616;42.692;23.312;2022-10-18T11:08:18;4.50;;;3.30;;
11123;SDS011;5616;42.692;23.312;2022-10-18T11:10:57;3.77;;;2.60;;
11123;SDS011;5616;42.692;23.312;2022-10-18T11:13:35;7.03;;;3.10;;
11123;SDS011;5616;42.692;23.312;2022-10-18T11:16:12;8.80;;;2.97;;
11123;SDS011;5616;42.692;23.312;2022-10-18T11:18:45;6.20;;;3.20;;
11123;SDS011;5616;42.692;23.312;2022-10-18T11:21:15;5.13;;;3.30;;
11123;SDS011;5616;42.692;23.312;2022-10-18T11:23:44;25.77;;;10.37;;
11123;SDS011;5616;42.692;23.312;2022-10-18T11:26:16;11.73;;;4.80;;
11123;SDS011;5616;42.692;23.312;2022-10-18T11:29:02;7.73;;;4.43;;
11123;SDS011;5616;42.692;23.312;2022-10-18T11:31:41;7.77;;;3.00;;
11123;SDS011;5616;42.692;23.312;2022-10-18T11:34:22;6.47;;;3.57;;
11123;SDS011;5616;42.692;23.312;2022-10-18T11:37:04;6.93;;;3.50;;
11123;SDS011;5616;42.692;23.312;2022-10-18T11:39:51;11.37;;;4.40;;
11123;SDS011;5616;42.692;23.312;2022-10-18T11:42:25;19.53;;;9.77;;
11123;SDS011;5616;42.692;23.312;2022-10-18T11:45:02;7.97;;;4.27;;
11123;SDS011;5616;42.692;23.312;2022-10-18T11:47:37;8.50;;;3.60;;
11123;SDS011;5616;42.692;23.312;2022-10-18T11:50:18;3.27;;;2.87;;
11123;SDS011;5616;42.692;23.312;2022-10-18T11:52:54;9.87;;;4.90;;
11123;SDS011;5616;42.692;23.312;2022-10-18T11:55:38;12.17;;;6.83;;
11123;SDS011;5616;42.692;23.312;2022-10-18T11:58:18;9.93;;;4.30;;
11123;SDS011;5616;42.692;23.312;2022-10-18T12:00:55;5.60;;;2.80;;
11123;SDS011;5616;42.692;23.312;2022-10-18T12:03:34;4.03;;;2.77;;
11123;SDS011;5616;42.692;23.312;2022-10-18T12:06:09;4.37;;;2.73;;
11123;SDS011;5616;42.692;23.312;2022-10-18T12:08:41;10.00;;;4.63;;
11123;SDS011;5616;42.692;23.312;2022-10-18T12:11:12;22.00;;;9.57;;
11123;SDS011;5616;42.692;23.312;2022-10-18T12:13:43;18.37;;;8.97;;
11123;SDS011;5616;42.692;23.312;2022-10-18T12:16:13;10.90;;;4.50;;
11123;SDS011;5616;42.692;23.312;2022-10-18T12:18:46;5.67;;;2.47;;
11123;SDS011;5616;42.692;23.312;2022-10-18T12:21:19;3.83;;;1.73;;
11123;SDS011;5616;42.692;23.312;2022-10-18T12:23:49;4.00;;;1.90;;
11123;SDS011;5616;42.692;23.312;2022-10-18T12:26:19;1.87;;;1.77;;
11123;SDS011;5616;42.692;23.312;2022-10-18T12:28:50;2.63;;;1.53;;
11123;SDS011;5616;42.692;23.312;2022-10-18T12:31:25;1.50;;;1.40;;
11123;SDS011;5616;42.692;23.312;2022-10-18T12:34:00;1.93;;;1.60;;
11123;SDS011;5616;42.692;23.312;2022-10-18T12:36:38;3.87;;;1.77;;
11123;SDS011;5616;42.692;23.312;2022-10-18T12:39:20;2.33;;;1.50;;
11123;SDS011;5616;42.692;23.312;2022-10-18T12:41:51;7.30;;;1.73;;
11123;SDS011;5616;42.692;23.312;2022-10-18T12:44:20;2.30;;;1.60;;
11123;SDS011;5616;42.692;23.312;2022-10-18T12:46:50;6.03;;;2.00;;
11123;SDS011;5616;42.692;23.312;2022-10-18T12:49:19;2.90;;;1.80;;
11123;SDS011;5616;42.692;23.312;2022-10-18T12:51:52;4.40;;;1.67;;
11123;SDS011;5616;42.692;23.312;2022-10-18T12:54:22;1.53;;;1.43;;
11123;SDS011;5616;42.692;23.312;2022-10-18T12:56:52;2.17;;;1.40;;
11123;SDS011;5616;42.692;23.312;2022-10-18T13:02:27;1.73;;;1.53;;
11123;SDS011;5616;42.692;23.312;2022-10-18T13:04:55;3.77;;;1.60;;
11123;SDS011;5616;42.692;23.312;2022-10-18T13:07:38;3.20;;;1.40;;
11123;SDS011;5616;42.692;23.312;2022-10-18T13:16:13;5.93;;;2.00;;
11123;SDS011;5616;42.692;23.312;2022-10-18T13:18:53;3.40;;;2.23;;
11123;SDS011;5616;42.692;23.312;2022-10-18T13:21:26;3.67;;;2.07;;
11123;SDS011;5616;42.692;23.312;2022-10-18T13:24:20;1.60;;;1.23;;
11123;SDS011;5616;42.692;23.312;2022-10-18T13:26:55;3.70;;;1.50;;
11123;SDS011;5616;42.692;23.312;2022-10-18T13:29:45;4.70;;;1.80;;
11123;SDS011;5616;42.692;23.312;2022-10-18T13:32:25;2.37;;;1.40;;
11123;SDS011;5616;42.692;23.312;2022-10-18T13:34:58;1.50;;;1.40;;
11123;SDS011;5616;42.692;23.312;2022-10-18T13:37:25;1.80;;;1.37;;
11123;SDS011;5616;42.692;23.312;2022-10-18T13:42:49;3.53;;;1.87;;
11123;SDS011;5616;42.692;23.312;2022-10-18T13:51:17;1.80;;;1.60;;
11123;SDS011;5616;42.692;23.312;2022-10-18T13:54:08;3.17;;;1.40;;
11123;SDS011;5616;42.692;23.312;2022-10-18T13:56:52;1.77;;;1.63;;
11123;SDS011;5616;42.692;23.312;2022-10-18T13:59:39;2.10;;;1.63;;
11123;SDS011;5616;42.692;23.312;2022-10-18T14:02:23;4.00;;;1.70;;
11123;SDS011;5616;42.692;23.312;2022-10-18T14:05:34;2.80;;;2.00;;
11123;SDS011;5616;42.692;23.312;2022-10-18T14:08:15;5.03;;;2.10;;
11123;SDS011;5616;42.692;23.312;2022-10-18T14:10:49;3.63;;;2.10;;
11123;SDS011;5616;42.692;23.312;2022-10-18T14:13:24;2.00;;;1.80;;
11123;SDS011;5616;42.692;23.312;2022-10-18T14:15:55;5.07;;;2.10;;
11123;SDS011;5616;42.692;23.312;2022-10-18T14:18:30;3.90;;;3.10;;
11123;SDS011;5616;42.692;23.312;2022-10-18T14:20:59;5.43;;;3.07;;
11123;SDS011;5616;42.692;23.312;2022-10-18T14:23:30;4.03;;;2.20;;
11123;SDS011;5616;42.692;23.312;2022-10-18T14:26:07;3.37;;;2.10;;
11123;SDS011;5616;42.692;23.312;2022-10-18T14:28:38;5.23;;;1.93;;
11123;SDS011;5616;42.692;23.312;2022-10-18T14:31:05;5.07;;;2.07;;
11123;SDS011;5616;42.692;23.312;2022-10-18T14:33:39;5.20;;;1.70;;
11123;SDS011;5616;42.692;23.312;2022-10-18T14:36:09;3.67;;;1.60;;
11123;SDS011;5616;42.692;23.312;2022-10-18T14:38:43;2.23;;;1.47;;
11123;SDS011;5616;42.692;23.312;2022-10-18T14:41:13;3.90;;;2.13;;
11123;SDS011;5616;42.692;23.312;2022-10-18T14:43:43;4.00;;;1.83;;
11123;SDS011;5616;42.692;23.312;2022-10-18T14:46:15;3.70;;;1.80;;
11123;SDS011;5616;42.692;23.312;2022-10-18T14:48:53;6.37;;;1.90;;
11123;SDS011;5616;42.692;23.312;2022-10-18T14:51:21;4.10;;;2.10;;
11123;SDS011;5616;42.692;23.312;2022-10-18T14:53:50;2.17;;;1.70;;
11123;SDS011;5616;42.692;23.312;2022-10-18T14:56:19;4.77;;;1.90;;
11123;SDS011;5616;42.692;23.312;2022-10-18T14:58:50;2.67;;;1.77;;
11123;SDS011;5616;42.692;23.312;2022-10-18T15:01:20;5.07;;;2.10;;
11123;SDS011;5616;42.692;23.312;2022-10-18T15:03:54;4.50;;;3.30;;
11123;SDS011;5616;42.692;23.312;2022-10-18T15:06:23;4.70;;;3.27;;
11123;SDS011;5616;42.692;23.312;2022-10-18T15:08:52;7.50;;;3.40;;
11123;SDS011;5616;42.692;23.312;2022-10-18T15:11:22;4.50;;;3.00;;
11123;SDS011;5616;42.692;23.312;2022-10-18T15:13:55;6.33;;;4.20;;
11123;SDS011;5616;42.692;23.312;2022-10-18T15:16:26;6.87;;;3.60;;
11123;SDS011;5616;42.692;23.312;2022-10-18T15:18:58;5.83;;;3.30;;
11123;SDS011;5616;42.692;23.312;2022-10-18T15:21:27;4.87;;;3.07;;
11123;SDS011;5616;42.692;23.312;2022-10-18T15:23:54;4.60;;;2.70;;